Time;durP1;ratioP1;P1;durP2;ratioP2;P2;SDS_P1;SDS_P2;PMS_P1;PMS_P2;Temp;Humidity;BMP_temperature;BMP_pressure;BME280_temperature;BME280_humidity;BME280_pressure;Samples;Min_cycle;Max_cycle;Signal;HPM_P1;HPM_P2
2024/02/01 00:01:31;;;;;;;;;;;5.30;100.00;;;;;;5044750;28;19932;-68
2024/02/01 00:03:58;;;;;;;;;;;5.30;100.00;;;;;;5045138;28;19925;-68
2024/02/01 00:06:25;;;;;;;;;;;5.30;100.00;;;;;;5039345;28;20572;-68
2024/02/01 00:08:52;;;;;;;;;;;5.20;100.00;;;;;;5042636;28;20024;-68
2024/02/01 00:11:19;;;;;;;;;;;5.10;100.00;;;;;;5040499;28;19974;-68
2024/02/01 00:13:46;;;;;;;;;;;5.00;100.00;;;;;;5041519;28;19984;-68
2024/02/01 00:16:19;;;;;;;;;;;4.90;100.00;;;;;;5044260;28;19972;-68
2024/02/01 00:18:47;;;;;;;;;;;4.80;100.00;;;;;;5038998;28;19947;-68
2024/02/01 00:21:16;;;;;;;;;;;4.80;100.00;;;;;;5041216;28;20452;-68
2024/02/01 00:23:43;;;;;;;;;;;4.70;100.00;;;;;;5043355;28;19964;-67
2024/02/01 00:26:10;;;;;;;;;;;4.60;100.00;;;;;;5039252;28;19936;-68
2024/02/01 00:28:37;;;;;;;;;;;4.60;100.00;;;;;;5042396;28;19929;-68
2024/02/01 00:31:04;;;;;;;;;;;4.50;100.00;;;;;;5044441;28;20304;-68
2024/02/01 00:33:30;;;;;;;;;;;4.50;100.00;;;;;;5043859;28;19936;-68
2024/02/01 00:35:57;;;;;;;;;;;4.40;100.00;;;;;;5042265;28;20459;-68
2024/02/01 00:38:24;;;;;;;;;;;4.30;100.00;;;;;;5040556;28;20404;-68
2024/02/01 00:40:51;;;;;;;;;;;4.30;100.00;;;;;;5043945;28;19968;-67
2024/02/01 00:43:18;;;;;;;;;;;4.30;100.00;;;;;;5042770;28;20033;-67
2024/02/01 00:45:44;;;;;;;;;;;4.30;100.00;;;;;;5044181;28;20423;-67
2024/02/01 00:48:11;;;;;;;;;;;4.20;100.00;;;;;;5043812;28;19968;-67
2024/02/01 00:50:38;;;;;;;;;;;4.20;100.00;;;;;;5044472;28;19924;-67
2024/02/01 00:53:05;;;;;;;;;;;4.20;100.00;;;;;;5043667;28;19929;-67
2024/02/01 00:55:32;;;;;;;;;;;4.20;100.00;;;;;;5037605;28;19929;-67
2024/02/01 00:57:58;;;;;;;;;;;4.10;100.00;;;;;;5042180;28;19979;-67
2024/02/01 01:00:25;;;;;;;;;;;4.10;100.00;;;;;;5043424;28;20022;-67
2024/02/01 01:02:52;;;;;;;;;;;4.10;100.00;;;;;;5042713;28;19951;-68
2024/02/01 01:05:19;;;;;;;;;;;4.10;100.00;;;;;;5039821;28;19976;-67
2024/02/01 01:07:46;;;;;;;;;;;4.10;100.00;;;;;;5044159;28;19928;-67
2024/02/01 01:10:13;;;;;;;;;;;4.10;100.00;;;;;;5043747;28;19940;-67
2024/02/01 01:12:39;;;;;;;;;;;4.10;100.00;;;;;;5041369;28;19929;-67
2024/02/01 01:15:06;;;;;;;;;;;4.10;100.00;;;;;;5038016;28;19929;-67
2024/02/01 01:17:33;;;;;;;;;;;4.10;100.00;;;;;;5041701;28;19928;-68
2024/02/01 01:20:03;;;;;;;;;;;4.00;100.00;;;;;;5039368;28;19935;-67
2024/02/01 01:22:30;;;;;;;;;;;4.00;100.00;;;;;;5043682;28;20036;-67
2024/02/01 01:24:57;;;;;;;;;;;4.00;100.00;;;;;;5042459;28;20094;-67
2024/02/01 01:27:23;;;;;;;;;;;4.00;100.00;;;;;;5043344;28;19936;-67
2024/02/01 01:29:51;;;;;;;;;;;4.00;100.00;;;;;;5041649;28;19952;-67
2024/02/01 01:32:18;;;;;;;;;;;4.00;100.00;;;;;;5036601;28;19928;-67
2024/02/01 01:34:44;;;;;;;;;;;4.00;100.00;;;;;;5041101;28;20367;-67
2024/02/01 01:37:11;;;;;;;;;;;4.00;100.00;;;;;;5043718;28;19939;-67
2024/02/01 01:39:38;;;;;;;;;;;4.00;100.00;;;;;;5049221;28;20434;-67
2024/02/01 01:42:05;;;;;;;;;;;4.00;100.00;;;;;;5044659;28;19933;-67
2024/02/01 01:44:32;;;;;;;;;;;4.00;100.00;;;;;;5039750;28;19986;-67
2024/02/01 01:46:59;;;;;;;;;;;4.00;100.00;;;;;;5038038;28;19925;-67
2024/02/01 01:49:25;;;;;;;;;;;4.00;100.00;;;;;;5045737;28;20026;-70
2024/02/01 01:51:54;;;;;;;;;;;4.00;100.00;;;;;;5045890;28;19933;-70
2024/02/01 01:54:22;;;;;;;;;;;4.10;100.00;;;;;;5045164;28;20007;-70
2024/02/01 01:56:49;;;;;;;;;;;4.10;100.00;;;;;;5046995;28;19936;-71
2024/02/01 01:59:16;;;;;;;;;;;4.10;100.00;;;;;;5046705;28;19929;-70
2024/02/01 02:01:47;;;;;;;;;;;4.10;100.00;;;;;;5045915;28;20027;-71
2024/02/01 02:04:15;;;;;;;;;;;4.10;100.00;;;;;;5045875;28;19933;-70
2024/02/01 02:06:42;;;;;;;;;;;4.20;100.00;;;;;;5046563;28;20373;-70
2024/02/01 02:09:12;;;;;;;;;;;4.20;100.00;;;;;;5046630;28;19929;-71
2024/02/01 02:11:43;;;;;;;;;;;4.20;100.00;;;;;;5045255;28;19928;-70
2024/02/01 02:14:11;;;;;;;;;;;4.20;100.00;;;;;;5042904;28;19935;-70
2024/02/01 02:16:38;;;;;;;;;;;4.20;100.00;;;;;;5040564;28;19935;-70
2024/02/01 02:19:09;;;;;;;;;;;4.20;100.00;;;;;;5042581;28;19933;-70
2024/02/01 02:21:43;;;;;;;;;;;4.30;100.00;;;;;;5036463;28;19929;-70
2024/02/01 02:24:10;;;;;;;;;;;4.30;100.00;;;;;;5044262;28;19933;-71
2024/02/01 02:26:37;;;;;;;;;;;4.30;100.00;;;;;;5046589;28;19932;-71
2024/02/01 02:29:03;;;;;;;;;;;4.40;100.00;;;;;;5043663;28;20019;-71
2024/02/01 02:31:30;;;;;;;;;;;4.40;100.00;;;;;;5046014;28;19929;-70
2024/02/01 02:33:57;;;;;;;;;;;4.40;100.00;;;;;;5046520;28;19990;-70
2024/02/01 02:36:25;;;;;;;;;;;4.40;100.00;;;;;;5043353;28;19992;-70
2024/02/01 02:38:51;;;;;;;;;;;4.50;100.00;;;;;;5044573;28;19929;-70
2024/02/01 02:41:18;;;;;;;;;;;4.50;100.00;;;;;;4988969;22;1862779;-70
2024/02/01 02:44:22;;;;;;;;;;;4.50;100.00;;;;;;5041990;28;19964;-70
2024/02/01 02:46:49;;;;;;;;;;;4.50;100.00;;;;;;5042690;28;19976;-70
2024/02/01 02:49:16;;;;;;;;;;;4.60;100.00;;;;;;5044838;28;20492;-70
2024/02/01 02:51:43;;;;;;;;;;;4.60;100.00;;;;;;5043207;28;19928;-70
2024/02/01 02:54:13;;;;;;;;;;;4.60;100.00;;;;;;5032251;28;19996;-70
2024/02/01 02:56:39;;;;;;;;;;;4.70;100.00;;;;;;5046630;28;19929;-70
2024/02/01 02:59:06;;;;;;;;;;;4.70;100.00;;;;;;5044832;28;19933;-70
2024/02/01 03:01:33;;;;;;;;;;;4.70;100.00;;;;;;5045655;28;19932;-70
2024/02/01 03:04:00;;;;;;;;;;;4.70;100.00;;;;;;5044028;28;19928;-71
2024/02/01 03:06:26;;;;;;;;;;;4.70;100.00;;;;;;5038602;28;19963;-70
2024/02/01 03:08:54;;;;;;;;;;;4.70;100.00;;;;;;5042891;28;20027;-70
2024/02/01 03:11:21;;;;;;;;;;;4.70;100.00;;;;;;5044409;28;19929;-70
2024/02/01 03:13:48;;;;;;;;;;;4.70;100.00;;;;;;5046637;28;20339;-70
2024/02/01 03:16:16;;;;;;;;;;;4.70;100.00;;;;;;5042109;28;19937;-70
2024/02/01 03:18:46;;;;;;;;;;;4.80;100.00;;;;;;5045354;28;19968;-70
2024/02/01 03:21:14;;;;;;;;;;;4.80;100.00;;;;;;5042912;28;20020;-71
2024/02/01 03:23:42;;;;;;;;;;;4.80;100.00;;;;;;5045824;28;20028;-71
2024/02/01 03:26:10;;;;;;;;;;;4.80;100.00;;;;;;5042854;28;19967;-71
2024/02/01 03:28:44;;;;;;;;;;;4.80;100.00;;;;;;5041145;28;19933;-71
2024/02/01 03:31:11;;;;;;;;;;;4.80;100.00;;;;;;5070441;28;20785;-71
2024/02/01 03:33:40;;;;;;;;;;;4.80;100.00;;;;;;5043493;28;20013;-71
2024/02/01 03:36:08;;;;;;;;;;;4.80;100.00;;;;;;5035189;28;19933;-71
2024/02/01 03:38:36;;;;;;;;;;;4.80;100.00;;;;;;5045184;28;19959;-71
2024/02/01 03:41:04;;;;;;;;;;;4.80;100.00;;;;;;5037547;28;19925;-71
2024/02/01 03:43:31;;;;;;;;;;;4.80;100.00;;;;;;5036178;28;19933;-70
2024/02/01 03:45:58;;;;;;;;;;;4.80;100.00;;;;;;5044173;28;19956;-70
2024/02/01 03:48:24;;;;;;;;;;;4.80;100.00;;;;;;5045565;28;19936;-70
2024/02/01 03:50:51;;;;;;;;;;;4.80;100.00;;;;;;5044096;28;19956;-70
2024/02/01 03:53:18;;;;;;;;;;;4.70;100.00;;;;;;5045601;28;19932;-70
2024/02/01 03:55:51;;;;;;;;;;;4.70;100.00;;;;;;5041655;28;19932;-71
2024/02/01 03:58:18;;;;;;;;;;;4.60;100.00;;;;;;5041079;28;19929;-70
2024/02/01 04:00:47;;;;;;;;;;;4.60;100.00;;;;;;5038114;28;19936;-71
2024/02/01 04:03:14;;;;;;;;;;;4.60;100.00;;;;;;5031997;28;19929;-71
2024/02/01 04:05:42;;;;;;;;;;;4.60;100.00;;;;;;5068024;28;19929;-70
2024/02/01 04:08:10;;;;;;;;;;;4.60;100.00;;;;;;5040574;28;19939;-70
2024/02/01 04:10:37;;;;;;;;;;;4.60;100.00;;;;;;5042572;28;20007;-70
2024/02/01 04:13:07;;;;;;;;;;;4.60;100.00;;;;;;5041764;28;19990;-70
2024/02/01 04:15:34;;;;;;;;;;;4.60;100.00;;;;;;5043854;28;19929;-70
2024/02/01 04:18:05;;;;;;;;;;;4.70;100.00;;;;;;5044305;28;19968;-70
2024/02/01 04:20:33;;;;;;;;;;;4.70;100.00;;;;;;5036818;28;20299;-70
2024/02/01 04:23:00;;;;;;;;;;;4.70;100.00;;;;;;5040858;28;19933;-67
2024/02/01 04:25:27;;;;;;;;;;;4.70;100.00;;;;;;5043765;28;19933;-67
2024/02/01 04:27:54;;;;;;;;;;;4.80;100.00;;;;;;5040888;28;19929;-67
2024/02/01 04:30:23;;;;;;;;;;;4.70;100.00;;;;;;5042131;28;19929;-67
2024/02/01 04:32:50;;;;;;;;;;;4.80;100.00;;;;;;5035980;28;19991;-67
2024/02/01 04:35:17;;;;;;;;;;;4.70;100.00;;;;;;5043425;28;19975;-67
2024/02/01 04:37:45;;;;;;;;;;;4.70;100.00;;;;;;5037494;28;20023;-67
2024/02/01 04:40:12;;;;;;;;;;;4.60;100.00;;;;;;5041589;28;20277;-67
2024/02/01 04:42:40;;;;;;;;;;;4.60;100.00;;;;;;5042028;28;19937;-67
2024/02/01 04:45:08;;;;;;;;;;;4.60;100.00;;;;;;5039762;28;20560;-67
2024/02/01 04:47:35;;;;;;;;;;;4.50;100.00;;;;;;5042267;28;19929;-67
2024/02/01 04:50:03;;;;;;;;;;;4.40;100.00;;;;;;5043552;28;20385;-67
2024/02/01 04:52:31;;;;;;;;;;;4.40;100.00;;;;;;5043614;28;19929;-67
2024/02/01 04:54:58;;;;;;;;;;;4.40;100.00;;;;;;5039795;28;19933;-67
2024/02/01 04:57:25;;;;;;;;;;;4.40;100.00;;;;;;5032496;28;20020;-67
2024/02/01 04:59:51;;;;;;;;;;;4.30;100.00;;;;;;5036580;28;19933;-67
2024/02/01 05:02:20;;;;;;;;;;;4.30;100.00;;;;;;5038890;28;20019;-67
2024/02/01 05:04:47;;;;;;;;;;;4.30;100.00;;;;;;5042299;28;19972;-67
2024/02/01 05:07:14;;;;;;;;;;;4.30;100.00;;;;;;5043633;28;19933;-67
2024/02/01 05:09:41;;;;;;;;;;;4.30;100.00;;;;;;5043705;28;19929;-67
2024/02/01 05:12:08;;;;;;;;;;;4.20;100.00;;;;;;5045527;28;19932;-67
2024/02/01 05:14:36;;;;;;;;;;;4.20;100.00;;;;;;5044087;28;19929;-67
2024/02/01 05:17:03;;;;;;;;;;;4.10;100.00;;;;;;5045901;28;19929;-67
2024/02/01 05:19:30;;;;;;;;;;;4.10;100.00;;;;;;5047064;28;19929;-67
2024/02/01 05:21:57;;;;;;;;;;;4.00;100.00;;;;;;5043485;28;20714;-67
2024/02/01 05:24:24;;;;;;;;;;;4.00;100.00;;;;;;5045121;28;19968;-67
2024/02/01 05:26:52;;;;;;;;;;;3.90;100.00;;;;;;5044131;28;19935;-67
2024/02/01 05:29:22;;;;;;;;;;;3.80;100.00;;;;;;5037455;28;19931;-67
2024/02/01 05:31:50;;;;;;;;;;;3.80;100.00;;;;;;5046218;28;19929;-67
2024/02/01 05:34:17;;;;;;;;;;;3.70;100.00;;;;;;5040711;28;19929;-67
2024/02/01 05:36:47;;;;;;;;;;;3.60;100.00;;;;;;5038923;28;20031;-67
2024/02/01 05:39:26;;;;;;;;;;;3.60;100.00;;;;;;5047699;28;20034;-67
2024/02/01 05:41:54;;;;;;;;;;;3.50;100.00;;;;;;5046152;28;20053;-67
2024/02/01 05:44:22;;;;;;;;;;;3.40;100.00;;;;;;5042902;28;19929;-67
2024/02/01 05:46:49;;;;;;;;;;;3.40;100.00;;;;;;5044690;28;19928;-67
2024/02/01 05:49:19;;;;;;;;;;;3.40;100.00;;;;;;5041039;28;19936;-66
2024/02/01 05:51:47;;;;;;;;;;;3.40;100.00;;;;;;5044063;28;19937;-67
2024/02/01 05:54:14;;;;;;;;;;;3.40;100.00;;;;;;5046709;28;19999;-67
2024/02/01 05:56:44;;;;;;;;;;;3.40;100.00;;;;;;5044102;28;19999;-67
2024/02/01 05:59:15;;;;;;;;;;;3.30;100.00;;;;;;5045934;28;20041;-67
2024/02/01 06:01:43;;;;;;;;;;;3.30;100.00;;;;;;5040568;28;19944;-67
2024/02/01 06:04:10;;;;;;;;;;;3.30;100.00;;;;;;5043263;28;20511;-67
2024/02/01 06:06:37;;;;;;;;;;;3.30;100.00;;;;;;5043975;28;20676;-67
2024/02/01 06:09:05;;;;;;;;;;;3.20;100.00;;;;;;5046544;28;19928;-73
2024/02/01 06:11:32;;;;;;;;;;;3.20;100.00;;;;;;5046538;28;20542;-67
2024/02/01 06:13:59;;;;;;;;;;;3.10;100.00;;;;;;5044916;28;19955;-67
2024/02/01 06:16:26;;;;;;;;;;;3.10;100.00;;;;;;5040092;28;19933;-66
2024/02/01 06:18:53;;;;;;;;;;;3.10;100.00;;;;;;5045824;28;19945;-66
2024/02/01 06:21:20;;;;;;;;;;;3.10;100.00;;;;;;5039594;28;19932;-66
2024/02/01 06:23:47;;;;;;;;;;;3.10;100.00;;;;;;5043525;28;20006;-67
2024/02/01 06:26:20;;;;;;;;;;;3.00;100.00;;;;;;5042446;28;19929;-66
2024/02/01 06:28:47;;;;;;;;;;;2.90;100.00;;;;;;5039653;28;19928;-66
2024/02/01 06:31:14;;;;;;;;;;;2.90;100.00;;;;;;5041194;28;19939;-68
2024/02/01 06:33:41;;;;;;;;;;;2.80;100.00;;;;;;5043460;28;19933;-66
2024/02/01 06:36:13;;;;;;;;;;;2.80;100.00;;;;;;5043605;28;19933;-66
2024/02/01 06:39:08;;;;;;;;;;;2.80;100.00;;;;;;5042052;28;19944;-67
2024/02/01 06:41:47;;;;;;;;;;;2.70;100.00;;;;;;5040787;28;20079;-67
2024/02/01 06:44:26;;;;;;;;;;;2.70;100.00;;;;;;5043538;28;20107;-71
2024/02/01 06:50:15;;;;;;;;;;;2.70;100.00;;;;;;5042638;28;19928;-71
2024/02/01 06:52:57;;;;;;;;;;;2.70;100.00;;;;;;5026583;28;19936;-71
2024/02/01 06:55:24;;;;;;;;;;;2.70;100.00;;;;;;5029615;28;19933;-70
2024/02/01 07:08:45;;;;;;;;;;;2.80;100.00;;;;;;5035863;28;19936;-71
2024/02/01 07:16:43;;;;;;;;;;;2.90;100.00;;;;;;5044288;28;20002;-71
2024/02/01 07:19:12;;;;;;;;;;;2.90;100.00;;;;;;5037348;28;19935;-70
2024/02/01 07:58:08;;;;;;;;;;;3.50;100.00;;;;;;5040442;28;20373;-72
2024/02/01 08:00:57;;;;;;;;;;;3.60;100.00;;;;;;5034613;28;19972;-72
2024/02/01 08:03:42;;;;;;;;;;;3.70;100.00;;;;;;5040434;28;19928;-72
2024/02/01 08:08:54;;;;;;;;;;;3.70;100.00;;;;;;5045951;28;19937;-67
2024/02/01 08:14:14;;;;;;;;;;;3.70;100.00;;;;;;5041275;28;19937;-71
2024/02/01 08:16:43;;;;;;;;;;;3.70;100.00;;;;;;5044543;28;19928;-70
2024/02/01 08:19:10;;;;;;;;;;;3.70;100.00;;;;;;5044752;28;20702;-71
2024/02/01 08:21:51;;;;;;;;;;;3.70;100.00;;;;;;5045072;28;19982;-72
2024/02/01 08:24:22;;;;;;;;;;;3.80;100.00;;;;;;5044102;28;20403;-71
2024/02/01 08:26:50;;;;;;;;;;;3.90;100.00;;;;;;5044168;28;19936;-72
2024/02/01 08:29:18;;;;;;;;;;;3.90;100.00;;;;;;5045399;28;19940;-71
2024/02/01 08:31:50;;;;;;;;;;;3.90;100.00;;;;;;5045147;28;19982;-71
2024/02/01 08:34:17;;;;;;;;;;;4.00;100.00;;;;;;5043483;28;20643;-71
2024/02/01 08:36:44;;;;;;;;;;;4.00;100.00;;;;;;5043577;28;20657;-70
2024/02/01 08:39:11;;;;;;;;;;;4.10;100.00;;;;;;5043677;28;19928;-71
2024/02/01 08:41:39;;;;;;;;;;;4.10;100.00;;;;;;5027226;28;19959;-70
2024/02/01 08:44:06;;;;;;;;;;;4.20;100.00;;;;;;5048848;28;19976;-71
2024/02/01 08:46:33;;;;;;;;;;;4.30;100.00;;;;;;5049323;28;20449;-70
2024/02/01 08:49:00;;;;;;;;;;;4.30;100.00;;;;;;5048762;28;19960;-70
2024/02/01 08:51:27;;;;;;;;;;;4.30;100.00;;;;;;5048987;28;19928;-70
2024/02/01 08:53:54;;;;;;;;;;;4.40;100.00;;;;;;5048991;28;19960;-71
2024/02/01 08:56:21;;;;;;;;;;;4.40;100.00;;;;;;5049216;28;19928;-70
2024/02/01 08:58:48;;;;;;;;;;;4.50;100.00;;;;;;5031155;28;19932;-70
2024/02/01 09:01:24;;;;;;;;;;;4.50;100.00;;;;;;5048918;28;19936;-71
2024/02/01 09:03:51;;;;;;;;;;;4.60;100.00;;;;;;5031060;28;19929;-70
2024/02/01 09:06:18;;;;;;;;;;;4.70;100.00;;;;;;5049299;28;19928;-70
2024/02/01 09:08:46;;;;;;;;;;;4.80;100.00;;;;;;5048776;28;19932;-71
2024/02/01 09:11:14;;;;;;;;;;;4.80;100.00;;;;;;5048831;28;19935;-70
2024/02/01 09:13:44;;;;;;;;;;;4.90;100.00;;;;;;5047801;28;19933;-70
2024/02/01 09:16:12;;;;;;;;;;;4.90;100.00;;;;;;5048736;28;19932;-70
2024/02/01 09:18:39;;;;;;;;;;;5.00;100.00;;;;;;5049049;28;20638;-71
2024/02/01 09:21:09;;;;;;;;;;;5.00;100.00;;;;;;5048399;28;19945;-71
2024/02/01 09:23:35;;;;;;;;;;;5.20;100.00;;;;;;5048428;28;20542;-70
2024/02/01 09:26:02;;;;;;;;;;;5.20;100.00;;;;;;5047991;28;20063;-71
2024/02/01 09:28:29;;;;;;;;;;;5.30;100.00;;;;;;5048275;28;19972;-70
2024/02/01 09:30:56;;;;;;;;;;;5.30;100.00;;;;;;5048695;28;19975;-70
2024/02/01 09:33:24;;;;;;;;;;;5.40;100.00;;;;;;5048458;28;20308;-70
2024/02/01 09:35:52;;;;;;;;;;;5.50;100.00;;;;;;5047768;28;19933;-70
2024/02/01 09:38:19;;;;;;;;;;;5.50;100.00;;;;;;5047607;28;20388;-70
2024/02/01 09:40:47;;;;;;;;;;;5.60;100.00;;;;;;5030591;28;19928;-70
2024/02/01 09:43:23;;;;;;;;;;;5.70;100.00;;;;;;5048125;28;20634;-70
2024/02/01 09:45:51;;;;;;;;;;;5.70;100.00;;;;;;5047662;28;19928;-70
2024/02/01 09:48:19;;;;;;;;;;;5.80;100.00;;;;;;5029837;28;19929;-69
2024/02/01 09:50:51;;;;;;;;;;;5.90;100.00;;;;;;5048208;28;20404;-70
2024/02/01 09:53:22;;;;;;;;;;;5.90;100.00;;;;;;5029878;28;20028;-70
2024/02/01 09:55:50;;;;;;;;;;;5.80;100.00;;;;;;5047894;28;19955;-70
2024/02/01 09:58:17;;;;;;;;;;;5.90;100.00;;;;;;5047531;28;19982;-70
2024/02/01 10:00:45;;;;;;;;;;;6.00;100.00;;;;;;5030375;28;20659;-69
2024/02/01 10:03:15;;;;;;;;;;;6.20;100.00;;;;;;5029593;28;19933;-69
2024/02/01 10:05:42;;;;;;;;;;;6.20;100.00;;;;;;5047275;28;19933;-69
2024/02/01 10:08:16;;;;;;;;;;;6.40;100.00;;;;;;5047478;28;19933;-69
2024/02/01 10:10:44;;;;;;;;;;;6.40;100.00;;;;;;5048012;28;19933;-70
2024/02/01 10:13:13;;;;;;;;;;;6.40;100.00;;;;;;5047510;28;19991;-69
2024/02/01 10:15:43;;;;;;;;;;;6.50;100.00;;;;;;5047551;28;19933;-69
2024/02/01 10:18:20;;;;;;;;;;;6.50;100.00;;;;;;5029592;28;19929;-70
2024/02/01 10:20:51;;;;;;;;;;;6.40;100.00;;;;;;5047710;28;19929;-69
2024/02/01 10:23:21;;;;;;;;;;;6.40;100.00;;;;;;5029506;28;19929;-70
2024/02/01 10:25:49;;;;;;;;;;;6.50;100.00;;;;;;5047231;28;19929;-71
2024/02/01 10:28:17;;;;;;;;;;;6.70;100.00;;;;;;5029336;28;20018;-70
2024/02/01 10:30:45;;;;;;;;;;;7.00;100.00;;;;;;5047732;28;20412;-70
2024/02/01 10:33:13;;;;;;;;;;;7.00;100.00;;;;;;5047274;28;19929;-70
2024/02/01 10:35:40;;;;;;;;;;;7.00;100.00;;;;;;5047339;28;19929;-70
2024/02/01 10:38:13;;;;;;;;;;;7.00;100.00;;;;;;5029453;28;19928;-70
2024/02/01 10:40:43;;;;;;;;;;;7.00;100.00;;;;;;5029588;28;20005;-70
2024/02/01 10:43:13;;;;;;;;;;;7.10;100.00;;;;;;5047318;28;19932;-69
2024/02/01 10:45:41;;;;;;;;;;;7.30;100.00;;;;;;5047313;28;20522;-71
2024/02/01 10:48:10;;;;;;;;;;;7.40;100.00;;;;;;5028721;28;20394;-71
2024/02/01 10:50:37;;;;;;;;;;;7.40;100.00;;;;;;5046780;28;19929;-71
2024/02/01 10:53:08;;;;;;;;;;;7.40;100.00;;;;;;5047075;28;20764;-71
2024/02/01 10:55:37;;;;;;;;;;;8.00;100.00;;;;;;5047115;28;20010;-70
2024/02/01 10:58:04;;;;;;;;;;;8.20;100.00;;;;;;5047196;28;19928;-71
2024/02/01 11:00:31;;;;;;;;;;;8.10;100.00;;;;;;5047177;28;19929;-70
2024/02/01 11:02:58;;;;;;;;;;;8.00;100.00;;;;;;5046730;28;19929;-70
2024/02/01 11:05:29;;;;;;;;;;;8.40;100.00;;;;;;5045981;28;19929;-70
2024/02/01 11:07:57;;;;;;;;;;;8.60;100.00;;;;;;5046834;28;19929;-70
2024/02/01 11:10:25;;;;;;;;;;;8.70;100.00;;;;;;5046897;28;19994;-71
2024/02/01 11:12:54;;;;;;;;;;;8.60;100.00;;;;;;5046422;28;19944;-70
2024/02/01 11:15:23;;;;;;;;;;;8.30;100.00;;;;;;5046704;28;19928;-71
2024/02/01 11:17:59;;;;;;;;;;;8.20;100.00;;;;;;5029084;28;19967;-71
2024/02/01 11:20:30;;;;;;;;;;;8.00;100.00;;;;;;5046427;28;20300;-71
2024/02/01 11:22:58;;;;;;;;;;;8.20;100.00;;;;;;5045963;28;19941;-71
2024/02/01 11:25:28;;;;;;;;;;;8.10;100.00;;;;;;5046498;28;19953;-70
2024/02/01 11:27:57;;;;;;;;;;;8.40;100.00;;;;;;5028428;28;19929;-70
2024/02/01 11:30:26;;;;;;;;;;;8.70;100.00;;;;;;5046101;28;19933;-70
2024/02/01 11:32:53;;;;;;;;;;;8.60;100.00;;;;;;5028527;28;19928;-70
2024/02/01 11:35:22;;;;;;;;;;;8.20;100.00;;;;;;5046480;28;19932;-70
2024/02/01 11:38:04;;;;;;;;;;;8.00;100.00;;;;;;5046148;28;19939;-70
2024/02/01 11:40:31;;;;;;;;;;;8.10;100.00;;;;;;5046095;28;19933;-70
2024/02/01 11:42:59;;;;;;;;;;;8.00;100.00;;;;;;5046276;28;19960;-70
2024/02/01 11:45:26;;;;;;;;;;;7.80;100.00;;;;;;5028489;28;19963;-71
2024/02/01 11:47:53;;;;;;;;;;;7.70;100.00;;;;;;5046002;28;20258;-71
2024/02/01 11:50:23;;;;;;;;;;;7.60;100.00;;;;;;5046388;28;19937;-70
2024/02/01 11:52:58;;;;;;;;;;;7.90;100.00;;;;;;5027998;28;19929;-70
2024/02/01 11:55:28;;;;;;;;;;;8.10;100.00;;;;;;5027918;28;19951;-70
2024/02/01 11:57:57;;;;;;;;;;;7.90;100.00;;;;;;5044616;28;19929;-71
2024/02/01 12:00:24;;;;;;;;;;;7.80;100.00;;;;;;5042584;28;20357;-70
2024/02/01 12:03:11;;;;;;;;;;;7.70;100.00;;;;;;5045747;28;19936;-70
2024/02/01 12:05:38;;;;;;;;;;;7.70;100.00;;;;;;5045461;28;19935;-70
2024/02/01 12:08:06;;;;;;;;;;;7.80;100.00;;;;;;5045252;28;19936;-71
2024/02/01 12:10:34;;;;;;;;;;;8.20;100.00;;;;;;5044884;28;19925;-70
2024/02/01 12:13:02;;;;;;;;;;;8.30;100.00;;;;;;5045265;28;19935;-70
2024/02/01 12:15:29;;;;;;;;;;;8.20;100.00;;;;;;5045610;28;20710;-70
2024/02/01 12:17:58;;;;;;;;;;;8.00;100.00;;;;;;5043750;28;19929;-70
2024/02/01 12:20:28;;;;;;;;;;;8.10;100.00;;;;;;5045758;28;19929;-71
2024/02/01 12:22:59;;;;;;;;;;;8.00;100.00;;;;;;5045683;28;20425;-70
2024/02/01 12:25:30;;;;;;;;;;;8.10;100.00;;;;;;5027378;28;20639;-70
2024/02/01 12:27:58;;;;;;;;;;;8.20;100.00;;;;;;5045240;28;19928;-70
2024/02/01 12:30:27;;;;;;;;;;;8.30;100.00;;;;;;5045206;28;19960;-70
2024/02/01 12:32:54;;;;;;;;;;;8.20;100.00;;;;;;5044433;28;19929;-70
2024/02/01 12:35:21;;;;;;;;;;;8.10;100.00;;;;;;5044480;28;20532;-70
2024/02/01 12:37:48;;;;;;;;;;;7.80;100.00;;;;;;5045709;28;20398;-70
2024/02/01 12:40:16;;;;;;;;;;;7.80;100.00;;;;;;5045001;28;19963;-70
2024/02/01 12:42:45;;;;;;;;;;;7.60;100.00;;;;;;5046671;28;20281;-70
2024/02/01 12:45:18;;;;;;;;;;;7.60;100.00;;;;;;5045387;28;19963;-71
2024/02/01 12:47:50;;;;;;;;;;;7.60;100.00;;;;;;5045602;28;19932;-72
2024/02/01 12:50:18;;;;;;;;;;;7.60;100.00;;;;;;5045092;28;19929;-71
2024/02/01 12:52:45;;;;;;;;;;;7.70;100.00;;;;;;5044583;28;20363;-71
2024/02/01 12:55:11;;;;;;;;;;;7.90;100.00;;;;;;5045278;28;19929;-72
2024/02/01 12:57:40;;;;;;;;;;;8.20;100.00;;;;;;5046107;28;19974;-71
2024/02/01 13:00:10;;;;;;;;;;;8.90;100.00;;;;;;5046381;28;20003;-70
2024/02/01 13:02:38;;;;;;;;;;;9.20;100.00;;;;;;5045802;28;19929;-71
2024/02/01 13:05:07;;;;;;;;;;;9.50;100.00;;;;;;5044956;28;19972;-70
2024/02/01 13:07:34;;;;;;;;;;;10.10;100.00;;;;;;5045169;28;20196;-71
2024/02/01 13:10:06;;;;;;;;;;;9.70;100.00;;;;;;5044737;28;20087;-71
2024/02/01 13:12:35;;;;;;;;;;;9.20;100.00;;;;;;5027222;28;20329;-71
2024/02/01 13:15:05;;;;;;;;;;;9.00;100.00;;;;;;5045098;28;19928;-71
2024/02/01 13:17:35;;;;;;;;;;;8.70;100.00;;;;;;5044495;28;19938;-71
2024/02/01 13:20:03;;;;;;;;;;;8.90;100.00;;;;;;5045526;28;19952;-71
2024/02/01 13:22:31;;;;;;;;;;;8.70;100.00;;;;;;5045577;28;19956;-71
2024/02/01 13:24:58;;;;;;;;;;;9.50;100.00;;;;;;5044932;28;19929;-71
2024/02/01 13:27:25;;;;;;;;;;;9.60;100.00;;;;;;5044860;28;19943;-71
2024/02/01 13:29:52;;;;;;;;;;;9.10;100.00;;;;;;5048073;28;19939;-71
2024/02/01 13:32:19;;;;;;;;;;;9.70;100.00;;;;;;5048760;28;19931;-71
2024/02/01 13:34:46;;;;;;;;;;;10.10;100.00;;;;;;5048314;28;19928;-71
2024/02/01 13:37:13;;;;;;;;;;;9.30;100.00;;;;;;5047983;28;19936;-71
2024/02/01 13:39:43;;;;;;;;;;;9.10;100.00;;;;;;5048505;28;19998;-71
2024/02/01 13:42:10;;;;;;;;;;;8.70;100.00;;;;;;5048488;28;19929;-71
2024/02/01 13:44:38;;;;;;;;;;;8.30;100.00;;;;;;5047906;28;19928;-70
2024/02/01 13:47:05;;;;;;;;;;;8.10;100.00;;;;;;5048078;28;19983;-71
2024/02/01 13:49:33;;;;;;;;;;;8.30;100.00;;;;;;5048330;28;20023;-71
2024/02/01 13:52:00;;;;;;;;;;;8.30;100.00;;;;;;5047755;28;19956;-71
2024/02/01 13:54:27;;;;;;;;;;;7.90;100.00;;;;;;5048161;28;20018;-71
2024/02/01 13:56:54;;;;;;;;;;;7.70;100.00;;;;;;5047688;28;19928;-70
2024/02/01 13:59:21;;;;;;;;;;;7.80;100.00;;;;;;5047888;28;20595;-71
2024/02/01 14:01:48;;;;;;;;;;;7.80;100.00;;;;;;5047748;28;19972;-70
2024/02/01 14:04:15;;;;;;;;;;;7.60;100.00;;;;;;5047481;28;20711;-71
2024/02/01 14:06:41;;;;;;;;;;;7.70;100.00;;;;;;5047746;28;19929;-71
2024/02/01 14:09:09;;;;;;;;;;;7.70;100.00;;;;;;5046811;28;19936;-71
2024/02/01 14:11:39;;;;;;;;;;;7.80;100.00;;;;;;5046084;28;19929;-71
2024/02/01 14:14:06;;;;;;;;;;;7.80;100.00;;;;;;5047510;28;19997;-71
2024/02/01 14:16:34;;;;;;;;;;;7.90;100.00;;;;;;5047407;28;20031;-71
2024/02/01 14:19:00;;;;;;;;;;;7.80;100.00;;;;;;5047009;28;19968;-71
2024/02/01 14:21:28;;;;;;;;;;;7.90;100.00;;;;;;5047577;28;19929;-71
2024/02/01 14:23:57;;;;;;;;;;;8.00;100.00;;;;;;5047621;28;19936;-71
2024/02/01 14:26:24;;;;;;;;;;;8.10;100.00;;;;;;5046050;28;19931;-71
2024/02/01 14:28:53;;;;;;;;;;;8.10;100.00;;;;;;5045724;28;19974;-71
2024/02/01 14:31:22;;;;;;;;;;;8.00;100.00;;;;;;5046654;28;19932;-71
2024/02/01 14:33:49;;;;;;;;;;;8.00;100.00;;;;;;5046905;28;20085;-70
2024/02/01 14:36:16;;;;;;;;;;;7.70;100.00;;;;;;5047179;28;20062;-70
2024/02/01 14:38:43;;;;;;;;;;;7.60;100.00;;;;;;5046903;28;19935;-71
2024/02/01 14:41:10;;;;;;;;;;;7.50;100.00;;;;;;5046019;28;19979;-70
2024/02/01 14:43:37;;;;;;;;;;;7.50;100.00;;;;;;5046985;28;19932;-69
2024/02/01 14:46:07;;;;;;;;;;;7.40;100.00;;;;;;5046484;28;19968;-70
2024/02/01 14:48:34;;;;;;;;;;;7.30;100.00;;;;;;5046628;28;19929;-70
2024/02/01 14:51:01;;;;;;;;;;;7.30;100.00;;;;;;5046628;28;19944;-70
2024/02/01 14:53:28;;;;;;;;;;;7.20;100.00;;;;;;5044206;28;20020;-71
2024/02/01 14:55:54;;;;;;;;;;;7.20;100.00;;;;;;5043504;28;19975;-70
2024/02/01 14:58:21;;;;;;;;;;;7.20;100.00;;;;;;5043229;28;19933;-71
2024/02/01 15:00:50;;;;;;;;;;;7.10;100.00;;;;;;5045743;28;19929;-70
2024/02/01 15:03:18;;;;;;;;;;;7.10;100.00;;;;;;5046526;28;20027;-70
2024/02/01 15:05:44;;;;;;;;;;;7.10;100.00;;;;;;5045683;28;19928;-70
2024/02/01 15:08:11;;;;;;;;;;;7.10;100.00;;;;;;5045778;28;19990;-70
2024/02/01 15:10:39;;;;;;;;;;;7.00;100.00;;;;;;5045229;28;19982;-70
2024/02/01 15:13:05;;;;;;;;;;;7.00;100.00;;;;;;5046115;28;19929;-70
2024/02/01 15:15:34;;;;;;;;;;;7.00;100.00;;;;;;5046434;28;19933;-70
2024/02/01 15:18:01;;;;;;;;;;;7.00;100.00;;;;;;5028754;28;20730;-70
2024/02/01 15:20:33;;;;;;;;;;;7.00;100.00;;;;;;5046673;28;19929;-70
2024/02/01 15:23:04;;;;;;;;;;;6.90;100.00;;;;;;5046747;28;20293;-69
2024/02/01 15:25:39;;;;;;;;;;;6.90;100.00;;;;;;5045273;28;19928;-69